Time;durP1;ratioP1;P1;durP2;ratioP2;P2;SDS_P1;SDS_P2;PMS_P1;PMS_P2;Temp;Humidity;BMP_temperature;BMP_pressure;BME280_temperature;BME280_humidity;BME280_pressure;Samples;Min_cycle;Max_cycle;Signal;HPM_P1;HPM_P2
2023/04/24 11:16:46;;;;;;;10.00;3.20;;;;;;;21.39;100.00;99723.94;103707;1305;545091;-73
2023/04/24 11:19:15;;;;;;;11.10;3.30;;;;;;;21.68;100.00;99734.64;106045;1266;25524;-74
2023/04/24 11:21:42;;;;;;;15.50;4.10;;;;;;;21.84;100.00;99729.77;106034;1281;22540;-72
2023/04/24 11:24:25;;;;;;;13.30;5.70;;;;;;;22.08;100.00;99734.40;106231;1288;22555;-72
2023/04/24 11:26:57;;;;;;;9.30;3.10;;;;;;;22.37;100.00;99729.89;105971;1287;22536;-66
2023/04/24 11:29:44;;;;;;;26.40;12.50;;;;;;;22.66;100.00;99728.70;106012;1281;219369;-68
2023/04/24 11:32:18;;;;;;;8.00;3.70;;;;;;;23.00;100.00;99737.38;106299;1278;25555;-67
2023/04/24 11:34:47;;;;;;;11.40;2.90;;;;;;;23.27;100.00;99742.46;106410;1279;25633;-68
2023/04/24 11:37:15;;;;;;;8.60;3.20;;;;;;;23.45;100.00;99759.44;106418;1282;23258;-68
2023/04/24 11:39:42;;;;;;;10.10;3.00;;;;;;;23.54;100.00;99770.16;106430;1279;22546;-69
2023/04/24 11:42:09;;;;;;;19.00;3.40;;;;;;;23.61;100.00;99775.52;106280;1279;22575;-66
2023/04/24 11:44:37;;;;;;;9.40;3.00;;;;;;;23.74;100.00;99772.69;106404;1279;25450;-67
2023/04/24 11:47:06;;;;;;;10.10;2.60;;;;;;;23.87;100.00;99772.16;106439;1282;24288;-68
2023/04/24 11:49:36;;;;;;;7.20;2.50;;;;;;;23.90;100.00;99778.40;106571;1279;25618;-70
2023/04/24 11:52:04;;;;;;;12.80;3.20;;;;;;;23.82;100.00;99785.79;106468;1260;27153;-68
2023/04/24 11:54:32;;;;;;;8.70;2.70;;;;;;;23.53;100.00;99792.23;106412;1280;24301;-67
2023/04/24 11:56:59;;;;;;;4.60;2.50;;;;;;;23.32;100.00;99785.47;106462;1283;25461;-67
2023/04/24 11:59:27;;;;;;;6.70;2.20;;;;;;;23.26;100.00;99786.23;106343;1281;24385;-70
2023/04/24 12:01:54;;;;;;;5.30;2.30;;;;;;;23.32;100.00;99786.48;106358;1276;25540;-69
2023/04/24 12:04:21;;;;;;;14.50;3.00;;;;;;;23.43;100.00;99782.48;106537;1283;24294;-67
2023/04/24 12:07:10;;;;;;;19.80;6.00;;;;;;;23.54;100.00;99773.96;106536;1283;22530;-73
2023/04/24 12:09:48;;;;;;;22.50;7.20;;;;;;;23.57;100.00;99773.23;106457;1280;22543;-73
2023/04/24 12:12:18;;;;;;;9.90;3.20;;;;;;;23.52;100.00;99775.44;106509;1283;22535;-70
2023/04/24 12:14:50;;;;;;;8.30;2.70;;;;;;;23.22;100.00;99782.67;106486;1283;24015;-70
2023/04/24 12:17:17;;;;;;;6.80;2.70;;;;;;;22.63;100.00;99790.12;106536;1281;22609;-70
2023/04/24 12:19:46;;;;;;;15.10;3.00;;;;;;;22.04;100.00;99792.25;106440;1281;22530;-70
2023/04/24 12:22:14;;;;;;;8.00;3.30;;;;;;;21.49;100.00;99787.37;106469;1279;22581;-70
2023/04/24 12:24:57;;;;;;;12.80;5.30;;;;;;;20.97;100.00;99784.44;106384;1279;25392;-67
2023/04/24 12:27:25;;;;;;;35.00;13.80;;;;;;;20.50;100.00;99784.31;106440;1276;26133;-66
2023/04/24 12:29:54;;;;;;;22.90;8.00;;;;;;;20.22;100.00;99777.48;106388;1279;22598;-68
2023/04/24 12:32:21;;;;;;;26.20;11.70;;;;;;;20.01;100.00;99776.05;106383;1275;23913;-68
2023/04/24 12:34:50;;;;;;;22.10;9.00;;;;;;;19.76;100.00;99779.14;106420;1276;25476;-66
2023/04/24 12:37:18;;;;;;;16.90;5.20;;;;;;;19.49;100.00;99778.09;106339;1282;23909;-70
2023/04/24 12:40:08;;;;;;;12.80;4.30;;;;;;;19.31;100.00;99779.73;106317;1283;22594;-66
2023/04/24 12:42:41;;;;;;;18.30;4.80;;;;;;;19.15;100.00;99776.90;106302;1283;25438;-67
2023/04/24 12:45:09;;;;;;;16.20;4.10;;;;;;;18.97;100.00;99771.48;106373;1283;22734;-67
2023/04/24 12:47:36;;;;;;;14.00;3.60;;;;;;;18.77;100.00;99776.46;106424;1283;22541;-67
2023/04/24 12:50:05;;;;;;;10.60;2.60;;;;;;;18.56;100.00;99773.17;106344;1283;22533;-70
2023/04/24 12:52:32;;;;;;;10.20;2.50;;;;;;;18.39;100.00;99767.11;106153;1276;24857;-70
2023/04/24 12:55:00;;;;;;;25.60;6.30;;;;;;;18.30;100.00;99770.66;106227;1275;24049;-68
2023/04/24 12:57:28;;;;;;;23.80;4.50;;;;;;;18.23;100.00;99768.10;106173;1276;24277;-71
2023/04/24 12:59:58;;;;;;;29.90;5.50;;;;;;;18.13;100.00;99762.02;106173;1279;25253;-71
2023/04/24 13:02:27;;;;;;;15.70;4.00;;;;;;;18.06;100.00;99747.30;106437;1275;22655;-70
2023/04/24 13:04:55;;;;;;;8.90;3.10;;;;;;;17.97;100.00;99732.31;106454;1278;25619;-71
2023/04/24 13:07:22;;;;;;;7.40;2.30;;;;;;;17.89;100.00;99726.05;106355;1282;22660;-73
2023/04/24 13:09:51;;;;;;;11.20;2.60;;;;;;;17.82;100.00;99718.10;106312;1284;22771;-70
2023/04/24 13:12:19;;;;;;;11.60;2.70;;;;;;;17.78;100.00;99715.29;106327;1284;22853;-66
2023/04/24 13:14:46;;;;;;;9.60;2.60;;;;;;;17.73;100.00;99713.39;105995;1282;22545;-69
2023/04/24 13:17:14;;;;;;;8.50;2.40;;;;;;;17.69;100.00;99729.51;106368;1282;24942;-70
2023/04/24 13:19:42;;;;;;;9.80;2.90;;;;;;;17.63;100.00;99743.05;106101;1276;22550;-70
2023/04/24 13:22:10;;;;;;;13.10;2.50;;;;;;;17.57;100.00;99741.64;106412;1276;22583;-70
2023/04/24 13:24:39;;;;;;;9.90;2.80;;;;;;;17.53;100.00;99731.67;106280;1282;22522;-63
2023/04/24 13:27:07;;;;;;;80.20;29.50;;;;;;;17.54;100.00;99726.36;106148;1279;22658;-70
2023/04/24 13:29:34;;;;;;;57.80;20.90;;;;;;;17.56;100.00;99725.41;106195;1279;24234;-70
2023/04/24 13:32:01;;;;;;;34.00;10.40;;;;;;;17.56;100.00;99725.16;106204;1281;22755;-70
2023/04/24 13:34:29;;;;;;;17.80;5.50;;;;;;;17.62;100.00;99718.52;106222;1283;24309;-73
2023/04/24 13:36:57;;;;;;;14.30;4.10;;;;;;;17.85;100.00;99712.40;106292;1276;22550;-69
2023/04/24 13:39:25;;;;;;;13.20;2.80;;;;;;;18.23;100.00;99704.30;106410;1279;26517;-71
2023/04/24 13:41:53;;;;;;;10.70;3.20;;;;;;;18.64;100.00;99699.14;106423;1282;22563;-66
2023/04/24 13:44:21;;;;;;;14.80;3.60;;;;;;;19.05;100.00;99690.64;106479;1283;24381;-65
2023/04/24 13:46:51;;;;;;;18.30;5.90;;;;;;;19.42;100.00;99699.66;106186;1282;24262;-65
2023/04/24 13:49:18;;;;;;;13.50;3.60;;;;;;;19.75;100.00;99695.94;106246;1283;22526;-71
2023/04/24 13:51:46;;;;;;;7.70;2.70;;;;;;;20.06;100.00;99691.13;106117;1283;24391;-69
2023/04/24 13:54:13;;;;;;;8.40;2.70;;;;;;;20.29;100.00;99686.90;106034;1283;24231;-70
2023/04/24 13:56:40;;;;;;;7.90;2.60;;;;;;;20.44;100.00;99692.80;106147;1276;24382;-73
2023/04/24 13:59:08;;;;;;;12.50;4.80;;;;;;;20.39;100.00;99693.86;106347;1279;24497;-70
2023/04/24 14:01:35;;;;;;;10.20;2.70;;;;;;;20.20;100.00;99699.51;106394;1275;22571;-69
2023/04/24 14:04:03;;;;;;;9.50;2.90;;;;;;;19.94;100.00;99707.31;106411;1275;24376;-69
2023/04/24 14:06:31;;;;;;;11.40;2.70;;;;;;;19.66;100.00;99706.54;106333;1281;25629;-70
2023/04/24 14:08:58;;;;;;;8.40;2.90;;;;;;;19.34;100.00;99707.83;106036;1271;25163;-70
2023/04/24 14:11:25;;;;;;;10.00;3.20;;;;;;;19.01;100.00;99705.23;106090;1282;24287;-72
2023/04/24 14:13:53;;;;;;;12.70;3.10;;;;;;;18.75;100.00;99694.06;106223;1276;24372;-69
2023/04/24 14:16:21;;;;;;;20.70;3.60;;;;;;;18.57;100.00;99679.08;106325;1282;22548;-69
2023/04/24 14:18:49;;;;;;;12.40;2.70;;;;;;;18.39;100.00;99667.85;106458;1282;24282;-69
2023/04/24 14:21:16;;;;;;;7.30;2.70;;;;;;;18.21;100.00;99657.86;106218;1279;22525;-71
2023/04/24 14:23:44;;;;;;;19.70;4.60;;;;;;;18.06;100.00;99639.89;106352;1275;22788;-72
2023/04/24 14:26:12;;;;;;;8.10;2.80;;;;;;;17.88;100.00;99618.06;106417;1282;24288;-70
2023/04/24 14:28:39;;;;;;;14.20;3.10;;;;;;;17.69;100.00;99604.44;106433;1284;22533;-71
2023/04/24 14:31:07;;;;;;;15.90;4.70;;;;;;;17.52;100.00;99593.50;106333;1283;22529;-71
2023/04/24 14:33:35;;;;;;;15.80;5.30;;;;;;;17.35;100.00;99581.23;106569;1275;25383;-70
2023/04/24 14:36:05;;;;;;;5.50;3.20;;;;;;;17.23;100.00;99579.00;106485;1279;22657;-70
2023/04/24 14:38:32;;;;;;;7.80;3.00;;;;;;;17.10;100.00;99565.27;107697;1275;22540;-70
2023/04/24 14:41:01;;;;;;;14.30;3.90;;;;;;;16.96;100.00;99559.27;107849;1282;25541;-70
2023/04/24 14:43:36;;;;;;;6.00;2.50;;;;;;;16.82;100.00;99551.22;106342;1276;25392;-70
2023/04/24 14:46:03;;;;;;;10.10;3.30;;;;;;;16.69;100.00;99550.73;106188;1282;22681;-71
2023/04/24 14:48:30;;;;;;;11.00;3.10;;;;;;;16.60;100.00;99552.50;106241;1275;24372;-71
2023/04/24 14:50:58;;;;;;;7.10;2.50;;;;;;;16.49;100.00;99536.45;106399;1279;22533;-70
2023/04/24 14:53:25;;;;;;;6.00;2.90;;;;;;;16.42;100.00;99512.08;106466;1275;22718;-69
2023/04/24 14:55:53;;;;;;;13.80;3.00;;;;;;;16.36;100.00;99489.55;106251;1277;22574;-69
2023/04/24 14:58:21;;;;;;;8.50;2.90;;;;;;;16.30;100.00;99475.36;106349;1279;25492;-69
2023/04/24 15:00:51;;;;;;;11.50;3.40;;;;;;;16.33;100.00;99441.34;106291;1283;23866;-69
2023/04/24 15:03:19;;;;;;;11.10;3.60;;;;;;;16.44;100.00;99424.88;106254;1283;25386;-69
2023/04/24 15:05:47;;;;;;;11.00;3.90;;;;;;;16.59;100.00;99414.44;106268;1283;24375;-69
2023/04/24 15:08:14;;;;;;;8.60;3.10;;;;;;;16.70;100.00;99403.92;106587;1278;24427;-70
2023/04/24 15:10:43;;;;;;;8.40;3.20;;;;;;;16.83;100.00;99397.73;106537;1267;22645;-70
2023/04/24 15:13:10;;;;;;;8.20;3.30;;;;;;;16.93;100.00;99394.83;106547;1278;25355;-69
2023/04/24 15:15:37;;;;;;;7.20;3.20;;;;;;;17.02;100.00;99383.41;106511;1279;22563;-69
2023/04/24 15:18:05;;;;;;;8.60;3.40;;;;;;;17.13;100.00;99385.58;106557;1279;24214;-69
2023/04/24 15:20:33;;;;;;;11.50;3.40;;;;;;;17.13;100.00;99421.59;106494;1278;25612;-70
2023/04/24 15:23:03;;;;;;;8.10;2.90;;;;;;;17.10;100.00;99434.16;106547;1278;24390;-70
2023/04/24 15:25:31;;;;;;;9.60;2.80;;;;;;;17.05;100.00;99454.80;106707;1279;24244;-70
2023/04/24 15:27:59;;;;;;;4.70;2.80;;;;;;;16.95;100.00;99485.16;106670;1279;24351;-70
2023/04/24 15:30:27;;;;;;;9.10;3.20;;;;;;;16.88;100.00;99501.75;106689;1278;25622;-70
2023/04/24 15:32:54;;;;;;;7.80;3.00;;;;;;;16.84;100.00;99520.18;106692;1278;24010;-70
2023/04/24 15:35:22;;;;;;;8.50;3.00;;;;;;;16.78;100.00;99544.23;106664;1264;22528;-70
2023/04/24 15:37:49;;;;;;;3.90;2.80;;;;;;;16.70;100.00;99553.89;108980;1279;22604;-70
2023/04/24 15:40:17;;;;;;;6.60;3.00;;;;;;;16.61;100.00;99570.71;106750;1279;24274;-71
2023/04/24 15:42:44;;;;;;;3.80;2.90;;;;;;;16.45;100.00;99588.25;106693;1279;22524;-70
2023/04/24 15:45:12;;;;;;;6.20;3.20;;;;;;;16.28;100.00;99596.67;106714;1279;23861;-70
2023/04/24 15:47:39;;;;;;;5.20;2.90;;;;;;;16.12;100.00;99604.77;106679;1279;24376;-70
2023/04/24 15:50:10;;;;;;;6.00;3.30;;;;;;;15.95;100.00;99611.33;106710;1279;24278;-70
2023/04/24 15:52:40;;;;;;;6.40;2.90;;;;;;;15.80;100.00;99614.73;106728;1278;24234;-70
2023/04/24 15:55:08;;;;;;;9.70;3.50;;;;;;;15.67;100.00;99607.63;106675;1279;24034;-70
2023/04/24 15:57:35;;;;;;;7.80;3.00;;;;;;;15.54;100.00;99595.05;106704;1278;22527;-69
2023/04/24 16:00:07;;;;;;;8.00;3.10;;;;;;;15.41;100.00;99580.30;106650;1278;24295;-69
2023/04/24 16:02:40;;;;;;;9.40;3.60;;;;;;;15.29;100.00;99564.18;106742;1278;25281;-69
2023/04/24 16:05:07;;;;;;;5.90;3.30;;;;;;;15.17;100.00;99556.42;106689;1278;24488;-68
2023/04/24 16:07:37;;;;;;;6.90;3.30;;;;;;;15.06;100.00;99544.92;106743;1278;23256;-70
2023/04/24 16:10:05;;;;;;;7.20;3.30;;;;;;;14.95;100.00;99537.48;106727;1278;25713;-70
2023/04/24 16:12:32;;;;;;;7.20;3.30;;;;;;;14.83;100.00;99534.45;106703;1278;23000;-69
2023/04/24 16:15:00;;;;;;;7.50;3.20;;;;;;;14.71;100.00;99522.82;106690;1278;24237;-69
2023/04/24 16:17:27;;;;;;;8.40;3.80;;;;;;;14.59;100.00;99508.28;106751;1278;24216;-69
2023/04/24 16:19:54;;;;;;;13.10;4.40;;;;;;;14.48;100.00;99494.39;106641;1278;24377;-69
2023/04/24 16:22:22;;;;;;;11.80;4.50;;;;;;;14.37;100.00;99469.40;106672;1278;22624;-69
2023/04/24 16:24:49;;;;;;;13.90;4.50;;;;;;;14.27;100.00;99450.58;106717;1278;24254;-68
2023/04/24 16:27:16;;;;;;;8.80;4.40;;;;;;;14.17;100.00;99425.55;106667;1278;22524;-68
2023/04/24 16:29:43;;;;;;;12.70;3.90;;;;;;;14.06;100.00;99395.87;106698;1278;22528;-68
2023/04/24 16:32:11;;;;;;;9.80;4.40;;;;;;;13.95;100.00;99363.64;106577;1278;22517;-68
2023/04/24 16:34:38;;;;;;;12.70;4.00;;;;;;;13.84;100.00;99349.21;106656;1278;24541;-68
2023/04/24 16:37:05;;;;;;;9.70;4.10;;;;;;;13.74;100.00;99342.06;106727;1278;22644;-68
2023/04/24 16:39:33;;;;;;;11.30;4.00;;;;;;;13.63;100.00;99326.23;106714;1278;24461;-68
2023/04/24 16:42:01;;;;;;;9.50;3.80;;;;;;;13.55;100.00;99297.23;106720;1278;24711;-68
2023/04/24 16:44:28;;;;;;;10.90;4.20;;;;;;;13.45;100.00;99280.55;106724;1278;24183;-68
2023/04/24 16:46:56;;;;;;;10.30;4.10;;;;;;;13.38;100.00;99263.66;106685;1278;25559;-67
2023/04/24 16:49:23;;;;;;;18.90;6.00;;;;;;;13.30;100.00;99236.98;106694;1278;24233;-68
2023/04/24 16:51:50;;;;;;;19.90;6.60;;;;;;;13.22;100.00;99212.21;106676;1278;22679;-67
2023/04/24 16:54:18;;;;;;;23.00;7.50;;;;;;;13.13;100.00;99191.23;105214;1278;1003523;-69
2023/04/24 16:56:45;;;;;;;24.40;8.10;;;;;;;13.06;100.00;99181.52;106690;1278;25471;-71
2023/04/24 16:59:12;;;;;;;24.10;8.00;;;;;;;12.99;100.00;99154.26;106685;1278;22623;-71
2023/04/24 17:01:40;;;;;;;23.30;7.40;;;;;;;12.92;100.00;99118.18;106697;1278;24262;-69
2023/04/24 17:04:07;;;;;;;23.90;6.90;;;;;;;12.85;100.00;99097.52;106583;1278;24222;-71
2023/04/24 17:06:35;;;;;;;22.20;6.60;;;;;;;12.79;100.00;99062.56;106408;1278;25630;-69
2023/04/24 17:09:02;;;;;;;19.10;6.60;;;;;;;12.74;100.00;99034.72;106244;1278;22790;-69
2023/04/24 17:11:30;;;;;;;19.20;5.70;;;;;;;12.70;100.00;99012.65;106350;1278;24403;-69
2023/04/24 17:14:00;;;;;;;13.00;5.20;;;;;;;12.65;100.00;99011.27;106324;1278;25504;-69
2023/04/24 17:16:27;;;;;;;11.90;5.20;;;;;;;12.59;100.00;98983.75;106445;1278;24310;-69
2023/04/24 17:18:55;;;;;;;11.50;4.50;;;;;;;12.53;100.00;98964.80;106711;1278;24277;-69
2023/04/24 17:21:22;;;;;;;13.80;4.80;;;;;;;12.47;100.00;98960.64;106685;1278;24202;-69
2023/04/24 17:23:49;;;;;;;13.00;4.40;;;;;;;12.41;100.00;98966.94;106685;1278;22546;-69
2023/04/24 17:26:17;;;;;;;16.60;4.30;;;;;;;12.34;100.00;98982.83;106684;1278;25465;-70
2023/04/24 17:28:44;;;;;;;13.10;4.50;;;;;;;12.28;100.00;99003.67;106680;1278;24259;-70
2023/04/24 17:31:12;;;;;;;15.40;4.60;;;;;;;12.24;100.00;99042.42;106725;1279;23640;-70
2023/04/24 17:33:40;;;;;;;13.10;4.40;;;;;;;12.20;100.00;99096.90;106719;1279;24449;-70
2023/04/24 17:36:07;;;;;;;12.80;3.80;;;;;;;12.20;100.00;99158.19;106680;1278;22535;-70
2023/04/24 17:38:35;;;;;;;11.00;3.30;;;;;;;12.19;100.00;99245.87;106711;1279;22523;-70
2023/04/24 17:41:02;;;;;;;5.90;3.50;;;;;;;12.18;100.00;99250.45;106670;1279;24369;-70
2023/04/24 17:43:29;;;;;;;9.00;3.60;;;;;;;12.20;100.00;99242.41;106642;1279;22530;-70
2023/04/24 17:45:58;;;;;;;11.60;3.50;;;;;;;12.23;100.00;99233.71;106647;1279;22786;-70
2023/04/24 17:48:25;;;;;;;12.10;3.90;;;;;;;12.24;100.00;99224.16;106713;1278;24219;-70
2023/04/24 17:50:53;;;;;;;10.90;3.80;;;;;;;12.22;100.00;99223.17;106713;1279;24247;-70
2023/04/24 17:53:21;;;;;;;12.40;3.70;;;;;;;12.19;100.00;99220.23;106684;1278;25574;-70
2023/04/24 17:55:49;;;;;;;15.60;3.60;;;;;;;12.15;100.00;99232.89;106692;1279;22657;-70
2023/04/24 17:58:17;;;;;;;10.30;3.60;;;;;;;12.10;100.00;99234.36;106697;1278;22524;-70
2023/04/24 18:00:45;;;;;;;7.50;3.20;;;;;;;12.05;100.00;99237.38;106651;1279;24225;-70
2023/04/24 18:03:13;;;;;;;13.50;3.90;;;;;;;12.01;100.00;99243.98;106738;1279;22641;-70
2023/04/24 18:05:40;;;;;;;13.50;4.00;;;;;;;11.96;100.00;99253.00;106661;1278;25622;-70
2023/04/24 18:08:08;;;;;;;8.00;4.00;;;;;;;11.92;100.00;99268.68;106654;1278;25536;-70
2023/04/24 18:10:35;;;;;;;10.60;3.60;;;;;;;11.89;100.00;99290.77;106682;1279;25470;-70
2023/04/24 18:13:03;;;;;;;8.50;3.60;;;;;;;11.86;100.00;99311.88;106691;1279;22652;-70
2023/04/24 18:15:30;;;;;;;13.50;3.70;;;;;;;11.84;100.00;99338.73;106693;1278;25594;-70
2023/04/24 18:17:58;;;;;;;9.60;4.10;;;;;;;11.83;100.00;99358.85;106725;1279;24375;-70
2023/04/24 18:20:26;;;;;;;16.20;5.60;;;;;;;11.83;100.00;99385.68;106691;1279;24356;-70
2023/04/24 18:22:53;;;;;;;12.70;4.90;;;;;;;11.82;100.00;99411.02;106722;1279;22565;-70
2023/04/24 18:25:25;;;;;;;16.30;5.30;;;;;;;11.83;100.00;99438.98;106698;1278;25467;-70
2023/04/24 18:27:54;;;;;;;17.00;4.80;;;;;;;11.84;100.00;99466.63;106724;1278;24253;-71
2023/04/24 18:30:22;;;;;;;13.60;4.60;;;;;;;11.84;100.00;99484.30;106749;1278;24321;-70
2023/04/24 18:32:51;;;;;;;11.90;4.60;;;;;;;11.83;100.00;99501.95;106738;1278;22561;-71
2023/04/24 18:35:20;;;;;;;9.80;4.40;;;;;;;11.79;100.00;99513.02;106721;1278;25288;-71
2023/04/24 18:37:48;;;;;;;11.50;4.10;;;;;;;11.76;100.00;99519.52;106743;1278;24234;-70
2023/04/24 18:40:15;;;;;;;17.20;5.80;;;;;;;11.73;100.00;99528.83;106731;1279;22530;-70
2023/04/24 18:42:43;;;;;;;25.20;10.20;;;;;;;11.70;100.00;99537.90;106735;1278;22960;-71
2023/04/24 18:45:10;;;;;;;32.20;13.90;;;;;;;11.66;100.00;99554.23;106716;1278;25628;-70
2023/04/24 18:47:41;;;;;;;26.10;10.90;;;;;;;11.64;100.00;99585.64;106687;1279;24427;-70
2023/04/24 18:50:10;;;;;;;23.80;9.50;;;;;;;11.64;100.00;99620.33;106680;1279;22744;-70
2023/04/24 18:52:37;;;;;;;25.10;8.30;;;;;;;11.63;100.00;99646.43;106695;1279;22533;-70
2023/04/24 18:55:05;;;;;;;21.20;8.60;;;;;;;11.61;100.00;99670.37;106683;1278;22544;-71
2023/04/24 18:57:33;;;;;;;24.70;8.90;;;;;;;11.59;100.00;99696.05;106624;1278;26538;-71
2023/04/24 19:00:00;;;;;;;27.70;8.90;;;;;;;11.57;100.00;99711.10;106662;1279;22530;-70
2023/04/24 19:02:28;;;;;;;21.90;8.20;;;;;;;11.55;100.00;99718.16;106673;1279;24238;-71
2023/04/24 19:04:55;;;;;;;22.20;8.10;;;;;;;11.53;100.00;99724.37;106697;1279;24513;-70
2023/04/24 19:07:23;;;;;;;18.30;7.00;;;;;;;11.51;100.00;99730.98;106725;1278;22647;-71
2023/04/24 19:09:51;;;;;;;17.60;6.00;;;;;;;11.49;100.00;99737.76;106699;1279;24224;-69
2023/04/24 19:12:18;;;;;;;15.40;6.10;;;;;;;11.46;100.00;99739.55;106693;1278;22464;-70
2023/04/24 19:14:48;;;;;;;11.90;4.80;;;;;;;11.41;100.00;99749.84;106695;1279;25537;-70
2023/04/24 19:17:22;;;;;;;10.80;4.10;;;;;;;11.35;100.00;99761.95;106645;1279;25419;-71
2023/04/24 19:19:51;;;;;;;8.70;3.60;;;;;;;11.28;100.00;99766.44;106702;1278;24227;-70
2023/04/24 19:22:22;;;;;;;9.40;4.10;;;;;;;11.22;100.00;99775.99;106563;1279;24385;-71
2023/04/24 19:24:49;;;;;;;17.50;6.80;;;;;;;11.17;100.00;99789.86;106288;1279;25548;-71
2023/04/24 19:27:16;;;;;;;21.60;9.30;;;;;;;11.15;100.00;99814.27;106324;1279;24208;-69
2023/04/24 19:29:43;;;;;;;33.00;14.50;;;;;;;11.14;100.00;99835.90;106476;1279;24350;-69
2023/04/24 19:32:11;;;;;;;47.10;23.40;;;;;;;11.15;100.00;99863.11;106634;1278;24282;-69
2023/04/24 19:34:38;;;;;;;108.70;49.10;;;;;;;11.19;100.00;99888.46;106657;1279;24406;-69
2023/04/24 19:37:07;;;;;;;190.80;88.30;;;;;;;11.23;100.00;99902.98;106658;1279;24237;-69
2023/04/24 19:39:34;;;;;;;189.10;85.20;;;;;;;11.26;100.00;99915.61;106730;1278;24306;-69
2023/04/24 19:42:03;;;;;;;190.30;80.70;;;;;;;11.28;100.00;99924.02;106659;1278;24247;-69
2023/04/24 19:44:33;;;;;;;417.50;176.20;;;;;;;11.31;100.00;99932.98;106697;1278;22531;-69
2023/04/24 19:47:00;;;;;;;390.90;174.30;;;;;;;11.36;100.00;99932.38;106685;1256;25503;-70
2023/04/24 19:49:28;;;;;;;352.00;154.20;;;;;;;11.43;100.00;99923.86;106699;1278;24239;-72
2023/04/24 19:51:55;;;;;;;328.30;143.20;;;;;;;11.46;100.00;99925.73;106674;1278;24327;-71
2023/04/24 19:54:23;;;;;;;255.60;113.50;;;;;;;11.47;100.00;99923.13;106656;1278;22572;-70
2023/04/24 19:56:50;;;;;;;164.60;70.60;;;;;;;11.47;100.00;99917.25;106679;1278;24368;-70
2023/04/24 19:59:17;;;;;;;126.60;57.20;;;;;;;11.45;100.00;99917.23;106718;1278;22527;-70
2023/04/24 20:01:45;;;;;;;83.50;42.40;;;;;;;11.40;100.00;99919.89;106685;1278;22635;-70
2023/04/24 20:04:13;;;;;;;98.50;47.10;;;;;;;11.37;100.00;99921.61;106694;1267;24236;-70
2023/04/24 20:06:40;;;;;;;103.80;54.00;;;;;;;11.33;100.00;99920.23;106548;1256;25562;-71
2023/04/24 20:09:08;;;;;;;91.10;45.80;;;;;;;11.34;100.00;99922.34;106231;1279;24510;-70
2023/04/24 20:11:36;;;;;;;123.60;61.40;;;;;;;11.42;100.00;99919.95;106367;1278;22813;-69
2023/04/24 20:14:03;;;;;;;110.90;55.40;;;;;;;11.51;100.00;99911.90;106629;1278;24252;-71
2023/04/24 20:16:30;;;;;;;78.40;39.60;;;;;;;11.57;100.00;99906.36;106674;1278;22517;-70
2023/04/24 20:18:58;;;;;;;60.10;28.30;;;;;;;11.58;100.00;99898.41;106744;1278;25482;-69
2023/04/24 20:21:25;;;;;;;39.60;19.30;;;;;;;11.52;100.00;99893.44;106830;1278;22627;-68
2023/04/24 20:23:53;;;;;;;27.30;12.60;;;;;;;11.46;100.00;99888.28;108140;1278;24283;-69
2023/04/24 20:26:20;;;;;;;27.50;13.60;;;;;;;11.40;100.00;99890.55;108175;1263;24227;-69
2023/04/24 20:28:47;;;;;;;77.00;37.00;;;;;;;11.36;100.00;99888.18;107185;1278;24197;-69
2023/04/24 20:31:15;;;;;;;92.30;46.90;;;;;;;11.32;100.00;99883.41;106711;1256;25466;-69
2023/04/24 20:33:44;;;;;;;108.10;53.20;;;;;;;11.28;100.00;99888.51;106738;1278;22529;-69
2023/04/24 20:36:11;;;;;;;84.40;46.10;;;;;;;11.25;100.00;99887.41;105996;1279;1003388;-69
2023/04/24 20:38:39;;;;;;;48.00;26.90;;;;;;;11.25;100.00;99886.73;106683;1278;22523;-69
2023/04/24 20:41:07;;;;;;;36.40;18.00;;;;;;;11.28;100.00;99889.27;106703;1278;24382;-69
2023/04/24 20:43:35;;;;;;;94.60;38.40;;;;;;;11.32;100.00;99885.84;106684;1278;22531;-70
2023/04/24 20:46:02;;;;;;;151.60;55.60;;;;;;;11.37;100.00;99884.61;106712;1278;24313;-71
2023/04/24 20:48:30;;;;;;;145.00;51.80;;;;;;;11.39;100.00;99882.92;106697;1278;24349;-69
2023/04/24 20:51:00;;;;;;;127.90;48.60;;;;;;;11.42;100.00;99873.73;106688;1278;25449;-69
2023/04/24 20:53:28;;;;;;;75.50;31.00;;;;;;;11.46;100.00;99870.09;106674;1278;24417;-69
2023/04/24 20:55:55;;;;;;;41.50;17.20;;;;;;;11.46;100.00;99868.63;106660;1278;22639;-69
2023/04/24 20:58:23;;;;;;;35.70;13.90;;;;;;;11.42;100.00;99869.35;106695;1260;23312;-69
2023/04/24 21:00:50;;;;;;;17.40;7.60;;;;;;;11.36;100.00;99865.49;106718;1278;24521;-70
2023/04/24 21:03:18;;;;;;;28.80;13.10;;;;;;;11.31;100.00;99867.23;106712;1278;25617;-70
2023/04/24 21:05:52;;;;;;;27.00;12.20;;;;;;;11.23;100.00;99873.95;106705;1256;25608;-70
2023/04/24 21:08:19;;;;;;;28.50;13.20;;;;;;;11.12;100.00;99873.47;106696;1278;23916;-70
2023/04/24 21:10:46;;;;;;;25.40;11.10;;;;;;;11.00;100.00;99882.31;106689;1278;22652;-70
2023/04/24 21:13:14;;;;;;;25.30;12.10;;;;;;;10.90;100.00;99886.21;106680;1278;22646;-69
2023/04/24 21:15:41;;;;;;;26.60;12.20;;;;;;;10.79;100.00;99899.36;106671;1278;22540;-70
2023/04/24 21:18:08;;;;;;;25.70;11.30;;;;;;;10.67;100.00;99919.65;106693;1278;22756;-70
2023/04/24 21:20:35;;;;;;;24.70;12.10;;;;;;;10.56;100.00;99929.95;106665;1278;24250;-70
2023/04/24 21:23:03;;;;;;;24.00;10.40;;;;;;;10.47;100.00;99940.06;106669;1278;23714;-70
2023/04/24 21:25:30;;;;;;;20.40;9.70;;;;;;;10.39;100.00;99938.69;106668;1278;22630;-70
2023/04/24 21:27:58;;;;;;;23.40;10.00;;;;;;;10.33;100.00;99942.28;106701;1278;24388;-70
2023/04/24 21:30:25;;;;;;;24.40;10.50;;;;;;;10.27;100.00;99944.13;106803;1278;22528;-70
2023/04/24 21:32:53;;;;;;;25.20;10.00;;;;;;;10.23;100.00;99941.73;106678;1278;24274;-70
2023/04/24 21:35:20;;;;;;;20.50;9.30;;;;;;;10.19;100.00;99936.74;106669;1278;24388;-70
2023/04/24 21:37:48;;;;;;;21.70;8.70;;;;;;;10.16;100.00;99933.33;106711;1278;22663;-70
2023/04/24 21:40:15;;;;;;;21.00;9.10;;;;;;;10.13;100.00;99930.94;106673;1278;22663;-70
2023/04/24 21:42:42;;;;;;;19.10;8.40;;;;;;;10.10;100.00;99920.48;106661;1278;22650;-70
2023/04/24 21:45:10;;;;;;;22.10;9.70;;;;;;;10.06;100.00;99898.02;106666;1278;24541;-70
2023/04/24 21:47:38;;;;;;;21.50;9.90;;;;;;;10.02;100.00;99898.06;106694;1278;22543;-69
2023/04/24 21:50:06;;;;;;;22.70;9.30;;;;;;;9.99;100.00;99898.27;106718;1278;22523;-70
2023/04/24 21:52:33;;;;;;;20.50;9.20;;;;;;;9.97;100.00;99900.70;106542;1278;22646;-69
2023/04/24 21:55:00;;;;;;;22.30;9.90;;;;;;;9.94;100.00;99899.63;106701;1278;24278;-70
2023/04/24 21:57:28;;;;;;;27.80;11.80;;;;;;;9.92;100.00;99904.36;105213;1278;1003617;-69
2023/04/24 21:59:56;;;;;;;45.70;18.60;;;;;;;9.88;100.00;99908.65;106717;1257;24670;-70
2023/04/24 22:02:23;;;;;;;41.70;17.30;;;;;;;9.87;100.00;99912.53;106707;1278;25472;-70
2023/04/24 22:04:51;;;;;;;32.80;14.00;;;;;;;9.90;100.00;99910.60;106710;1278;24365;-70
2023/04/24 22:07:19;;;;;;;23.60;9.60;;;;;;;9.99;100.00;99912.66;106691;1278;24278;-70
2023/04/24 22:09:47;;;;;;;19.80;9.00;;;;;;;10.09;100.00;99911.79;106725;1278;25362;-70
2023/04/24 22:12:14;;;;;;;20.00;8.70;;;;;;;10.18;100.00;99904.59;106659;1278;25418;-70
2023/04/24 22:14:41;;;;;;;22.80;9.80;;;;;;;10.30;100.00;99900.76;106688;1278;24275;-70
2023/04/24 22:17:09;;;;;;;19.90;10.10;;;;;;;10.40;100.00;99892.60;106718;1278;24375;-70
2023/04/24 22:19:36;;;;;;;23.70;11.60;;;;;;;10.48;100.00;99882.55;106692;1278;23634;-70
2023/04/24 22:22:04;;;;;;;24.10;11.10;;;;;;;10.54;100.00;99876.35;106694;1278;22537;-70
2023/04/24 22:24:31;;;;;;;24.30;11.00;;;;;;;10.57;100.00;99869.06;106743;1278;24357;-70
2023/04/24 22:26:58;;;;;;;23.30;10.70;;;;;;;10.59;100.00;99869.36;106668;1278;22537;-70
2023/04/24 22:29:26;;;;;;;22.10;10.50;;;;;;;10.61;100.00;99861.05;106668;1278;25400;-70